createdAt,value
2022-08-16T00:01:45.900Z,99373.25
2022-08-16T00:06:48.345Z,99368.19
2022-08-16T00:11:52.561Z,99372.63
2022-08-16T00:17:06.471Z,99375.97
2022-08-16T00:22:16.386Z,99366.19
2022-08-16T00:27:18.239Z,99364.91
2022-08-16T00:32:20.021Z,99371.06
2022-08-16T00:37:57.807Z,99385.06
2022-08-16T00:42:47.575Z,99375.81
2022-08-16T00:47:56.721Z,99378.59
2022-08-16T00:52:59.191Z,99372.31
2022-08-16T00:58:01.047Z,99378.03
2022-08-16T01:03:08.141Z,99371.88
2022-08-16T01:08:36.157Z,99368.81
2022-08-16T01:13:39.006Z,99390.47
2022-08-16T01:18:48.617Z,99391.53
2022-08-16T01:24:52.466Z,99406.00
2022-08-16T01:29:59.965Z,99390.84
2022-08-16T01:35:06.802Z,99392.50
2022-08-16T01:40:09.137Z,99392.50
2022-08-16T01:45:10.767Z,99410.34
2022-08-16T01:50:42.508Z,99411.44
2022-08-16T01:55:35.568Z,99400.34
2022-08-16T02:00:38.753Z,99391.56
2022-08-16T02:05:42.157Z,99398.22
2022-08-16T02:10:48.402Z,99396.78
2022-08-16T02:15:50.515Z,99391.34
2022-08-16T02:20:54.326Z,99399.28
2022-08-16T02:25:57.161Z,99393.72
2022-08-16T02:31:06.518Z,99379.56
2022-08-16T02:36:14.159Z,99385.00
2022-08-16T02:41:23.469Z,99395.66
2022-08-16T02:46:30.217Z,99387.59
2022-08-16T02:51:38.296Z,99394.34
2022-08-16T02:56:42.936Z,99404.59
2022-08-16T03:01:50.225Z,99393.88
2022-08-16T03:06:59.154Z,99405.31
2022-08-16T03:12:16.684Z,99413.94
2022-08-16T03:17:20.166Z,99421.88
2022-08-16T03:22:29.600Z,99425.53
2022-08-16T03:27:36.419Z,99423.47
2022-08-16T03:32:40.356Z,99426.44
2022-08-16T03:38:01.434Z,99434.22
2022-08-16T03:43:20.667Z,99440.00
2022-08-16T03:48:39.675Z,99423.44
2022-08-16T03:53:57.851Z,99437.66
2022-08-16T03:59:03.214Z,99438.13
2022-08-16T04:04:11.763Z,99451.84
2022-08-16T04:09:20.767Z,99456.44
2022-08-16T04:14:32.707Z,99456.91
2022-08-16T04:19:36.498Z,99453.34
2022-08-16T04:24:38.362Z,99459.88
2022-08-16T04:29:44.150Z,99481.75
2022-08-16T04:34:49.184Z,99476.31
2022-08-16T04:39:55.272Z,99484.94
2022-08-16T04:45:02.056Z,99493.03
2022-08-16T04:50:18.145Z,99489.22
2022-08-16T04:55:53.079Z,99502.50
2022-08-16T05:00:57.426Z,99509.94
2022-08-16T05:06:05.249Z,99513.00
2022-08-16T05:11:10.509Z,99510.31
2022-08-16T05:16:21.480Z,99508.66
2022-08-16T05:21:28.423Z,99523.69
2022-08-16T05:26:40.714Z,99523.81
2022-08-16T05:31:48.390Z,99520.41
2022-08-16T05:36:57.402Z,99526.44
2022-08-16T05:42:06.297Z,99527.94
2022-08-16T05:47:09.157Z,99539.06
2022-08-16T05:52:20.722Z,99530.13
2022-08-16T05:57:24.365Z,99540.41
2022-08-16T06:02:33.443Z,99543.72
2022-08-16T06:07:36.634Z,99539.91
2022-08-16T06:12:47.040Z,99534.31
2022-08-16T06:17:56.661Z,99539.81
2022-08-16T06:23:04.132Z,99547.28
2022-08-16T06:28:35.716Z,99539.88
2022-08-16T06:33:42.321Z,99547.44
2022-08-16T06:38:55.558Z,99543.66
2022-08-16T06:44:21.389Z,99549.00
2022-08-16T06:49:29.867Z,99549.72
2022-08-16T06:54:34.550Z,99557.31
2022-08-16T06:59:52.698Z,99568.63
2022-08-16T07:04:56.216Z,99577.31
2022-08-16T07:09:59.446Z,99582.19
2022-08-16T07:15:01.381Z,99581.41
2022-08-16T07:20:34.650Z,99587.91
2022-08-16T07:25:31.017Z,99591.16
2022-08-16T07:30:45.313Z,99584.69
2022-08-16T07:36:09.738Z,99597.47
2022-08-16T07:41:15.886Z,99597.19
2022-08-16T07:46:38.852Z,99599.41
2022-08-16T07:51:54.282Z,99596.97
2022-08-16T07:56:58.232Z,99607.53
2022-08-16T08:02:00.600Z,99607.09
2022-08-16T08:07:02.530Z,99600.59
2022-08-16T08:12:32.663Z,99602.50
2022-08-16T08:17:42.506Z,99604.81
2022-08-16T08:22:48.033Z,99603.44
2022-08-16T08:27:51.456Z,99614.13
2022-08-16T08:33:01.051Z,99608.34
2022-08-16T08:38:10.029Z,99621.06
2022-08-16T08:43:18.107Z,99615.00
2022-08-16T08:48:32.994Z,99612.41
2022-08-16T08:53:39.719Z,99617.84
2022-08-16T08:58:47.093Z,99611.31
2022-08-16T09:04:06.171Z,99612.16
2022-08-16T09:09:09.549Z,99617.97
2022-08-16T09:14:24.705Z,99611.63
2022-08-16T09:19:32.818Z,99620.19
2022-08-16T09:24:52.551Z,99620.78
2022-08-16T09:29:59.951Z,99617.75
2022-08-16T09:35:02.845Z,99618.34
2022-08-16T09:40:32.735Z,99618.34
2022-08-16T09:45:30.058Z,99606.06
2022-08-16T09:50:38.218Z,99609.97
2022-08-16T09:55:44.486Z,99599.56
2022-08-16T10:00:46.592Z,99601.72
2022-08-16T10:05:49.144Z,99600.75
2022-08-16T10:11:09.243Z,99603.78
2022-08-16T10:21:16.772Z,99597.75
2022-08-16T10:27:03.737Z,99586.25
2022-08-16T10:31:45.339Z,99590.34
2022-08-16T10:36:48.062Z,99590.44
2022-08-16T10:41:55.920Z,99592.09
2022-08-16T10:46:57.768Z,99589.53
2022-08-16T10:52:02.954Z,99596.16
2022-08-16T10:57:19.523Z,99596.84
2022-08-16T11:02:59.636Z,99587.31
2022-08-16T11:07:52.394Z,99592.22
2022-08-16T11:12:55.382Z,99590.56
2022-08-16T11:23:18.577Z,99590.03
2022-08-16T11:33:52.575Z,99587.84
2022-08-16T11:38:57.324Z,99583.44
2022-08-16T11:44:01.042Z,99573.28
2022-08-16T11:49:06.712Z,99568.09
2022-08-16T11:54:20.918Z,99571.66
2022-08-16T11:59:28.457Z,99570.84
2022-08-16T12:04:31.504Z,99572.56
2022-08-16T12:09:33.471Z,99565.94
2022-08-16T12:14:41.679Z,99565.13
2022-08-16T12:19:47.315Z,99564.88
2022-08-16T12:24:51.891Z,99563.28
2022-08-16T12:29:54.888Z,99560.81
2022-08-16T12:35:01.737Z,99558.63
2022-08-16T12:40:07.418Z,99545.72
2022-08-16T12:45:28.247Z,99552.56
2022-08-16T12:50:33.321Z,99547.09
2022-08-16T12:55:41.975Z,99546.84
2022-08-16T13:00:46.001Z,99544.34
2022-08-16T13:05:55.523Z,99543.53
2022-08-16T13:10:58.231Z,99536.69
2022-08-16T13:16:05.757Z,99533.38
2022-08-16T13:21:17.161Z,99532.00
2022-08-16T13:26:18.838Z,99527.06
2022-08-16T13:31:20.451Z,99531.97
2022-08-16T13:36:45.710Z,99537.22
2022-08-16T13:41:44.049Z,99533.66
2022-08-16T13:46:56.820Z,99535.84
2022-08-16T13:51:58.979Z,99531.97
2022-08-16T13:57:01.794Z,99530.34
2022-08-16T14:02:06.801Z,99528.69
2022-08-16T14:07:11.484Z,99519.59
2022-08-16T14:12:21.941Z,99521.53
2022-08-16T14:17:24.546Z,99517.66
2022-08-16T14:22:31.356Z,99515.44
2022-08-16T14:27:35.905Z,99513.81
2022-08-16T14:32:41.666Z,99511.31
2022-08-16T14:37:52.699Z,99509.09
2022-08-16T14:43:06.885Z,99516.00
2022-08-16T14:48:09.418Z,99502.22
2022-08-16T14:53:11.247Z,99506.09
2022-08-16T14:58:19.517Z,99504.69
2022-08-16T15:03:25.480Z,99502.19
2022-08-16T15:08:36.478Z,99494.00
2022-08-16T15:13:41.034Z,99498.09
2022-08-16T15:18:42.612Z,99502.72
2022-08-16T15:23:48.406Z,99512.06
2022-08-16T15:28:51.208Z,99503.84
2022-08-16T15:33:56.604Z,99512.94
2022-08-16T15:39:06.781Z,99509.34
2022-08-16T15:44:23.801Z,99514.06
2022-08-16T15:49:37.231Z,99507.19
2022-08-16T15:54:52.405Z,99510.75
2022-08-16T15:59:56.381Z,99515.41
2022-08-16T16:05:14.042Z,99517.66
2022-08-16T16:10:15.667Z,99514.34
2022-08-16T16:15:20.196Z,99516.56
2022-08-16T16:20:27.249Z,99518.19
2022-08-16T16:25:29.968Z,99522.59
2022-08-16T16:30:38.292Z,99513.25
2022-08-16T16:35:47.173Z,99511.56
2022-08-16T16:41:02.107Z,99514.34
2022-08-16T16:46:39.073Z,99510.25
2022-08-16T16:51:28.019Z,99507.19
2022-08-16T16:56:36.913Z,99516.56
2022-08-16T17:01:59.920Z,99518.78
2022-08-16T17:07:10.892Z,99532.78
2022-08-16T17:12:22.678Z,99531.97
2022-08-16T17:17:29.584Z,99533.66
2022-08-16T17:22:32.982Z,99534.47
2022-08-16T17:27:35.447Z,99532.56
2022-08-16T17:32:46.651Z,99530.38
2022-08-16T17:39:27.327Z,99530.38
2022-08-16T17:43:13.976Z,99532.00
2022-08-16T17:48:15.524Z,99547.09
2022-08-16T17:53:17.369Z,99544.63
2022-08-16T17:58:22.419Z,99553.94
2022-08-16T18:04:02.962Z,99560.25
2022-08-16T18:09:00.317Z,99570.97
2022-08-16T18:14:05.746Z,99570.72
2022-08-16T18:19:07.629Z,99573.44
2022-08-16T18:24:11.057Z,99581.38
2022-08-16T18:29:13.907Z,99582.72
2022-08-16T18:34:15.454Z,99587.94
2022-08-16T18:39:17.001Z,99593.94
2022-08-16T18:44:24.988Z,99603.22
2022-08-16T18:49:28.647Z,99607.66
2022-08-16T18:54:32.256Z,99613.38
2022-08-16T18:59:34.004Z,99617.72
2022-08-16T19:04:55.075Z,99618.03
2022-08-16T19:10:00.022Z,99621.84
2022-08-16T19:15:01.693Z,99625.09
2022-08-16T19:20:10.032Z,99623.72
2022-08-16T19:25:12.587Z,99634.38
2022-08-16T19:30:17.652Z,99641.75
2022-08-16T19:35:19.287Z,99640.91
2022-08-16T19:40:37.666Z,99643.91
2022-08-16T19:45:45.335Z,99649.63
2022-08-16T19:50:47.745Z,99656.72
2022-08-16T19:55:49.399Z,99651.53
2022-08-16T20:00:52.482Z,99666.03
2022-08-16T20:05:59.253Z,99672.84
2022-08-16T20:11:01.149Z,99665.38
2022-08-16T20:16:02.832Z,99677.69
2022-08-16T20:21:06.792Z,99674.66
2022-08-16T20:26:08.396Z,99681.22
2022-08-16T20:31:11.427Z,99688.25
2022-08-16T20:36:16.109Z,99686.09
2022-08-16T20:41:18.833Z,99687.97
2022-08-16T20:46:20.512Z,99685.47
2022-08-16T20:51:22.122Z,99678.94
2022-08-16T20:56:23.787Z,99685.19
2022-08-16T21:01:25.467Z,99682.16
2022-08-16T21:06:54.085Z,99682.63
2022-08-16T21:11:57.687Z,99674.97
2022-08-16T21:17:01.384Z,99674.16
2022-08-16T21:22:17.973Z,99682.06
2022-08-16T21:27:19.721Z,99687.78
2022-08-16T21:32:34.886Z,99691.63
2022-08-16T21:37:37.573Z,99689.97
2022-08-16T21:42:41.211Z,99694.56
2022-08-16T21:47:43.537Z,99689.63
2022-08-16T21:52:45.112Z,99685.16
2022-08-16T21:57:46.675Z,99693.91
2022-08-16T22:02:51.353Z,99685.69
2022-08-16T22:07:55.406Z,99686.47
2022-08-16T22:13:00.011Z,99686.72
2022-08-16T22:18:01.681Z,99699.81
2022-08-16T22:23:19.071Z,99695.94
2022-08-16T22:28:22.023Z,99697.78
2022-08-16T22:33:26.492Z,99703.78
2022-08-16T22:38:53.886Z,99707.59
2022-08-16T22:43:50.810Z,99712.97
2022-08-16T22:48:52.396Z,99712.13
2022-08-16T22:53:54.749Z,99719.44
2022-08-16T22:58:56.496Z,99712.59
2022-08-16T23:03:58.418Z,99709.78
2022-08-16T23:08:59.977Z,99706.41
2022-08-16T23:14:01.874Z,99705.28
2022-08-16T23:19:11.517Z,99703.31
2022-08-16T23:24:13.985Z,99705.16
2022-08-16T23:29:25.601Z,99703.50
2022-08-16T23:34:28.557Z,99701.03
2022-08-16T23:39:30.180Z,99694.66
2022-08-16T23:44:55.431Z,99695.72
2022-08-16T23:50:00.356Z,99689.94
2022-08-16T23:55:05.602Z,99687.28
